createdAt,value
2023-01-23T00:01:09.356Z,-5.10
2023-01-23T00:03:36.495Z,-5.30
2023-01-23T00:06:07.722Z,-5.40
2023-01-23T00:08:35.721Z,-5.90
2023-01-23T00:11:10.620Z,-6.10
2023-01-23T00:13:37.685Z,-6.30
2023-01-23T00:16:09.902Z,-6.30
2023-01-23T00:18:36.769Z,-6.30
2023-01-23T00:21:05.755Z,-6.30
2023-01-23T00:23:33.319Z,-5.90
2023-01-23T00:26:08.164Z,-5.90
2023-01-23T00:28:35.200Z,-5.90
2023-01-23T00:31:07.254Z,-5.90
2023-01-23T00:33:34.072Z,-5.80
2023-01-23T00:36:01.394Z,-5.50
2023-01-23T00:38:28.095Z,-5.50
2023-01-23T00:40:56.323Z,-5.50
2023-01-23T00:43:24.289Z,-5.60
2023-01-23T00:45:51.811Z,-5.50
2023-01-23T00:48:18.612Z,-5.70
2023-01-23T00:50:45.606Z,-5.70
2023-01-23T00:53:13.154Z,-5.80
2023-01-23T00:55:40.695Z,-6.10
2023-01-23T00:58:08.414Z,-6.30
2023-01-23T01:00:37.435Z,-6.30
2023-01-23T01:03:05.289Z,-6.20
2023-01-23T01:05:32.418Z,-6.20
2023-01-23T01:07:59.578Z,-5.90
2023-01-23T01:10:29.473Z,-5.50
2023-01-23T01:12:58.184Z,-5.20
2023-01-23T01:15:26.216Z,-5.10
2023-01-23T01:17:58.242Z,-5.30
2023-01-23T01:20:27.494Z,-5.60
2023-01-23T01:22:57.144Z,-5.30
2023-01-23T01:25:24.090Z,-5.20
2023-01-23T01:27:50.860Z,-5.30
2023-01-23T01:30:18.944Z,-5.50
2023-01-23T01:32:47.415Z,-5.60
2023-01-23T01:35:14.192Z,-5.30
2023-01-23T01:37:41.843Z,-4.90
2023-01-23T01:40:13.075Z,-4.70
2023-01-23T01:42:45.045Z,-4.50
2023-01-23T01:45:49.858Z,-4.10
2023-01-23T01:48:18.667Z,-4.00
2023-01-23T01:50:45.904Z,-4.00
2023-01-23T01:53:13.378Z,-4.00
2023-01-23T01:55:40.460Z,-4.00
2023-01-23T01:58:08.637Z,-4.20
2023-01-23T02:00:36.058Z,-4.10
2023-01-23T02:03:03.663Z,-4.20
2023-01-23T02:05:47.468Z,-4.10
2023-01-23T02:08:35.823Z,-4.30
2023-01-23T02:11:03.464Z,-4.50
2023-01-23T02:13:38.781Z,-4.30
2023-01-23T02:16:23.283Z,-4.60
2023-01-23T02:18:53.854Z,-4.70
2023-01-23T02:21:25.506Z,-4.70
2023-01-23T02:24:22.925Z,-4.80
2023-01-23T02:26:52.514Z,-4.50
2023-01-23T02:29:20.485Z,-4.50
2023-01-23T02:31:53.947Z,-4.40
2023-01-23T02:34:22.754Z,-4.40
2023-01-23T02:36:50.658Z,-4.20
2023-01-23T02:39:20.391Z,-4.10
2023-01-23T02:41:54.568Z,-4.00
2023-01-23T02:44:33.990Z,-3.80
2023-01-23T02:47:12.402Z,-4.10
2023-01-23T02:49:40.677Z,-3.70
2023-01-23T02:52:09.844Z,-3.50
2023-01-23T02:54:37.295Z,-3.70
2023-01-23T02:57:04.343Z,-3.50
2023-01-23T02:59:49.821Z,-3.50
2023-01-23T03:02:17.236Z,-3.40
2023-01-23T03:04:43.985Z,-3.40
2023-01-23T03:07:10.749Z,-3.40
2023-01-23T03:09:37.945Z,-3.40
2023-01-23T03:12:04.726Z,-3.30
2023-01-23T03:14:32.351Z,-3.30
2023-01-23T03:16:59.137Z,-3.30
2023-01-23T03:19:32.829Z,-3.20
2023-01-23T03:21:59.790Z,-3.20
2023-01-23T03:24:26.633Z,-3.20
2023-01-23T03:26:53.526Z,-3.30
2023-01-23T03:29:44.638Z,-3.30
2023-01-23T03:32:14.999Z,-3.10
2023-01-23T03:34:43.003Z,-2.80
2023-01-23T03:37:11.438Z,-2.90
2023-01-23T03:39:57.773Z,-2.80
2023-01-23T03:42:25.605Z,-2.80
2023-01-23T03:44:55.565Z,-2.80
2023-01-23T03:47:26.401Z,-2.90
2023-01-23T03:49:55.057Z,-3.00
2023-01-23T03:52:22.209Z,-3.00
2023-01-23T03:54:49.037Z,-2.90
2023-01-23T03:57:15.847Z,-2.90
2023-01-23T04:00:10.401Z,-2.80
2023-01-23T04:02:49.587Z,-2.70
2023-01-23T04:05:17.322Z,-3.10
2023-01-23T04:07:44.075Z,-3.10
2023-01-23T04:10:13.151Z,-3.00
2023-01-23T04:12:43.102Z,-3.20
2023-01-23T04:15:10.995Z,-3.10
2023-01-23T04:17:40.626Z,-3.20
2023-01-23T04:20:09.792Z,-3.10
2023-01-23T04:22:36.478Z,-3.10
2023-01-23T04:25:03.326Z,-2.90
2023-01-23T04:27:32.043Z,-3.10
2023-01-23T04:29:59.293Z,-3.10
2023-01-23T04:32:26.133Z,-2.90
2023-01-23T04:34:53.042Z,-2.80
2023-01-23T04:37:19.800Z,-2.90
2023-01-23T04:39:46.698Z,-2.70
2023-01-23T04:42:13.981Z,-2.70
2023-01-23T04:45:10.650Z,-3.00
2023-01-23T04:47:59.798Z,-2.80
2023-01-23T04:50:26.496Z,-2.80
2023-01-23T04:52:53.204Z,-2.80
2023-01-23T04:55:19.990Z,-2.70
2023-01-23T04:57:46.790Z,-2.60
2023-01-23T05:00:21.834Z,-2.50
2023-01-23T05:02:50.110Z,-2.60
2023-01-23T05:05:20.872Z,-2.50
2023-01-23T05:07:50.929Z,-2.20
2023-01-23T05:10:18.572Z,-2.40
2023-01-23T05:12:46.306Z,-2.40
2023-01-23T05:15:13.420Z,-2.50
2023-01-23T05:17:41.876Z,-2.70
2023-01-23T05:20:10.727Z,-2.50
2023-01-23T05:22:51.985Z,-2.40
2023-01-23T05:25:26.125Z,-2.30
2023-01-23T05:27:55.175Z,-2.30
2023-01-23T05:30:23.280Z,-2.50
2023-01-23T05:32:53.555Z,-2.50
2023-01-23T05:35:22.055Z,-2.90
2023-01-23T05:37:50.564Z,-2.70
2023-01-23T05:40:21.806Z,-2.80
2023-01-23T05:43:07.081Z,-2.60
2023-01-23T05:45:49.239Z,-2.30
2023-01-23T05:48:28.482Z,-2.50
2023-01-23T05:50:55.567Z,-2.60
2023-01-23T05:53:22.361Z,-2.40
2023-01-23T05:55:49.099Z,-2.40
2023-01-23T05:58:16.336Z,-2.40
2023-01-23T06:01:14.967Z,-2.40
2023-01-23T06:04:00.830Z,-2.30
2023-01-23T06:06:38.429Z,-2.20
2023-01-23T06:09:05.248Z,-2.20
2023-01-23T06:11:32.173Z,-2.00
2023-01-23T06:13:59.177Z,-2.00
2023-01-23T06:16:26.176Z,-2.30
2023-01-23T06:18:53.049Z,-2.20
2023-01-23T06:21:20.061Z,-1.90
2023-01-23T06:23:47.877Z,-2.10
2023-01-23T06:26:15.368Z,-2.10
2023-01-23T06:28:42.075Z,-2.10
2023-01-23T06:31:10.355Z,-2.20
2023-01-23T06:33:51.642Z,-2.40
2023-01-23T06:36:23.321Z,-2.30
2023-01-23T06:38:53.258Z,-2.40
2023-01-23T06:41:25.846Z,-2.00
2023-01-23T06:44:01.610Z,-1.90
2023-01-23T06:46:29.059Z,-2.00
2023-01-23T06:48:56.177Z,-2.30
2023-01-23T06:51:23.605Z,-2.40
2023-01-23T06:53:50.582Z,-2.10
2023-01-23T06:56:18.155Z,-2.10
2023-01-23T06:58:46.268Z,-2.30
2023-01-23T07:01:33.677Z,-2.10
2023-01-23T07:04:17.413Z,-2.10
2023-01-23T07:06:45.006Z,-2.00
2023-01-23T07:09:14.795Z,-2.10
2023-01-23T07:11:45.545Z,-2.30
2023-01-23T07:14:12.402Z,-2.10
2023-01-23T07:16:46.157Z,-2.40
2023-01-23T07:19:13.296Z,-2.40
2023-01-23T07:21:41.308Z,-2.30
2023-01-23T07:24:08.049Z,-2.40
2023-01-23T07:26:34.761Z,-2.20
2023-01-23T07:29:01.544Z,-2.20
2023-01-23T07:31:28.300Z,-2.20
2023-01-23T07:33:55.024Z,-2.20
2023-01-23T07:36:21.751Z,-2.20
2023-01-23T07:38:48.481Z,-1.90
2023-01-23T07:41:15.200Z,-2.00
2023-01-23T07:43:41.938Z,-2.00
2023-01-23T07:46:09.708Z,-1.90
2023-01-23T07:48:37.782Z,-1.90
2023-01-23T07:51:05.297Z,-2.00
2023-01-23T07:53:32.594Z,-1.90
2023-01-23T07:55:59.560Z,-2.10
2023-01-23T07:58:26.246Z,-2.10
2023-01-23T08:00:53.265Z,-2.10
2023-01-23T08:03:21.016Z,-2.10
2023-01-23T08:05:50.939Z,-2.00
2023-01-23T08:08:17.720Z,-2.00
2023-01-23T08:10:44.440Z,-2.10
2023-01-23T08:13:11.861Z,-2.10
2023-01-23T08:15:38.931Z,-2.00
2023-01-23T08:18:05.791Z,-2.10
2023-01-23T08:20:32.499Z,-2.20
2023-01-23T08:23:00.719Z,-2.30
2023-01-23T08:25:27.792Z,-2.20
2023-01-23T08:27:54.493Z,-1.90
2023-01-23T08:30:21.813Z,-2.00
2023-01-23T08:32:48.641Z,-2.00
2023-01-23T08:35:15.714Z,-1.90
2023-01-23T08:37:42.513Z,-1.80
2023-01-23T08:40:09.833Z,-1.70
2023-01-23T08:42:36.528Z,-1.70
2023-01-23T08:45:03.743Z,-1.80
2023-01-23T08:47:36.301Z,-2.00
2023-01-23T08:50:04.516Z,-1.70
2023-01-23T08:52:31.612Z,-1.70
2023-01-23T08:54:58.386Z,-1.90
2023-01-23T08:57:25.138Z,-1.70
2023-01-23T08:59:51.927Z,-1.60
2023-01-23T09:02:22.133Z,-1.50
2023-01-23T09:04:49.249Z,-1.30
2023-01-23T09:07:15.959Z,-1.40
2023-01-23T09:09:42.742Z,-1.30
2023-01-23T09:12:09.538Z,-1.30
2023-01-23T09:14:36.356Z,-1.50
2023-01-23T09:17:03.074Z,-1.60
2023-01-23T09:19:32.043Z,-1.30
2023-01-23T09:21:58.785Z,-1.50
2023-01-23T09:24:25.513Z,-1.30
2023-01-23T09:26:52.232Z,-1.30
2023-01-23T09:29:18.916Z,-1.00
2023-01-23T09:31:45.605Z,-1.00
2023-01-23T09:34:12.398Z,-1.00
2023-01-23T09:36:43.405Z,-0.80
2023-01-23T09:39:11.070Z,-0.70
2023-01-23T09:41:39.558Z,-0.90
2023-01-23T09:44:12.678Z,-1.00
2023-01-23T09:46:53.127Z,-1.10
2023-01-23T09:49:49.671Z,-1.20
2023-01-23T09:52:20.528Z,-1.40
2023-01-23T09:54:49.702Z,-1.30
2023-01-23T09:57:42.365Z,-1.10
2023-01-23T10:00:25.395Z,-1.00
2023-01-23T10:02:53.453Z,-0.70
2023-01-23T10:05:29.921Z,-1.00
2023-01-23T10:07:59.640Z,-0.90
2023-01-23T10:10:35.197Z,-0.90
2023-01-23T10:13:09.179Z,-0.90
2023-01-23T10:15:55.140Z,-0.90
2023-01-23T10:18:31.185Z,-1.20
2023-01-23T10:21:22.684Z,-1.20
2023-01-23T10:24:10.930Z,-1.10
2023-01-23T10:26:42.584Z,-1.10
2023-01-23T10:29:28.821Z,-1.10
2023-01-23T10:31:58.838Z,-1.20
2023-01-23T10:34:48.400Z,-1.20
2023-01-23T10:37:42.964Z,-0.90
2023-01-23T10:40:16.229Z,-1.00
2023-01-23T10:42:43.271Z,-1.00
2023-01-23T10:45:18.857Z,-1.00
2023-01-23T10:47:54.697Z,-0.90
2023-01-23T10:50:39.153Z,-0.90
2023-01-23T10:53:08.480Z,-0.80
2023-01-23T10:55:35.313Z,-0.60
2023-01-23T10:58:03.141Z,-0.60
2023-01-23T11:00:39.655Z,-0.80
2023-01-23T11:03:26.990Z,-0.60
2023-01-23T11:06:00.741Z,-0.80
2023-01-23T11:08:51.854Z,-0.90
2023-01-23T11:11:30.469Z,-0.70
2023-01-23T11:14:14.028Z,-0.50
2023-01-23T11:16:41.013Z,-0.10
2023-01-23T11:19:07.657Z,-0.30
2023-01-23T11:21:37.035Z,-0.20
2023-01-23T11:24:20.469Z,-0.30
2023-01-23T11:26:59.641Z,-0.40
2023-01-23T11:29:28.316Z,-0.40
2023-01-23T11:32:10.507Z,-0.50
2023-01-23T11:34:42.876Z,-0.60
2023-01-23T11:37:15.972Z,-0.60
2023-01-23T11:39:48.798Z,-0.60
2023-01-23T11:42:17.270Z,-0.50
2023-01-23T11:44:46.836Z,-0.60
2023-01-23T11:47:59.111Z,-0.50
2023-01-23T11:50:49.908Z,-0.70
2023-01-23T11:53:41.904Z,-0.80
2023-01-23T11:56:36.933Z,-0.90
2023-01-23T11:59:14.428Z,-0.80
2023-01-23T12:02:06.154Z,-0.70
2023-01-23T12:04:53.173Z,-0.70
2023-01-23T12:07:27.691Z,-0.20
2023-01-23T12:09:59.754Z,0.00
2023-01-23T12:12:51.485Z,-0.30
2023-01-23T12:15:34.407Z,-0.40
2023-01-23T12:18:15.492Z,-0.50
2023-01-23T12:20:54.100Z,-0.10
2023-01-23T12:23:46.543Z,-0.10
2023-01-23T12:26:22.531Z,-0.10
2023-01-23T12:29:16.066Z,-0.20
2023-01-23T12:31:55.445Z,-0.20
2023-01-23T12:34:22.657Z,-0.20
2023-01-23T12:37:29.916Z,-0.20
2023-01-23T12:39:57.815Z,0.00
2023-01-23T12:42:37.153Z,0.10
2023-01-23T12:45:11.397Z,0.00
2023-01-23T12:48:02.070Z,-0.10
2023-01-23T12:50:46.050Z,-0.10
2023-01-23T12:53:23.203Z,0.00
2023-01-23T12:56:02.550Z,0.00
2023-01-23T12:58:34.196Z,-0.10
2023-01-23T13:01:20.496Z,-0.10
2023-01-23T13:04:12.526Z,0.00
2023-01-23T13:07:17.162Z,-0.10
2023-01-23T13:10:49.235Z,0.00
2023-01-23T13:13:18.422Z,0.00
2023-01-23T13:16:02.788Z,0.00
2023-01-23T13:18:30.332Z,-0.10
2023-01-23T13:21:18.072Z,-0.10
2023-01-23T13:23:45.529Z,0.00
2023-01-23T13:26:25.181Z,0.10
2023-01-23T13:28:57.346Z,0.00
2023-01-23T13:31:26.614Z,0.10
2023-01-23T13:34:06.756Z,0.10
2023-01-23T13:36:40.808Z,0.00
2023-01-23T13:39:16.723Z,0.20
2023-01-23T13:41:45.787Z,0.30
2023-01-23T13:44:40.233Z,0.20
2023-01-23T14:22:47.306Z,0.10
2023-01-23T14:25:18.369Z,0.20
2023-01-23T14:27:53.240Z,0.20
2023-01-23T14:30:26.399Z,0.30
2023-01-23T14:32:53.546Z,0.20
2023-01-23T14:35:29.213Z,0.10
2023-01-23T14:37:59.164Z,0.20
2023-01-23T14:40:33.238Z,0.10
2023-01-23T14:43:07.833Z,0.20
2023-01-23T14:45:36.852Z,0.10
2023-01-23T14:48:07.560Z,0.20
2023-01-23T14:50:35.617Z,0.00
2023-01-23T14:53:05.446Z,0.10
2023-01-23T14:55:36.369Z,0.10
2023-01-23T14:58:04.363Z,0.20
2023-01-23T15:00:32.056Z,0.10
2023-01-23T15:02:58.831Z,0.20
2023-01-23T15:05:27.601Z,0.10
2023-01-23T15:07:58.474Z,0.10
2023-01-23T15:10:32.355Z,0.10
2023-01-23T15:13:05.809Z,0.20
2023-01-23T15:15:34.430Z,0.20
2023-01-23T15:18:05.833Z,0.10
2023-01-23T15:20:42.855Z,0.10
2023-01-23T15:23:34.942Z,0.10
2023-01-23T15:26:12.679Z,0.20
2023-01-23T15:28:53.990Z,0.00
2023-01-23T15:31:57.303Z,0.00
2023-01-23T15:34:28.398Z,-0.10
2023-01-23T15:37:05.414Z,-0.10
2023-01-23T15:40:04.703Z,-0.10
2023-01-23T15:42:34.306Z,0.00
2023-01-23T15:45:02.597Z,0.00
2023-01-23T15:47:34.644Z,-0.10
2023-01-23T15:50:03.123Z,-0.10
2023-01-23T15:52:52.188Z,-0.10
2023-01-23T15:55:21.153Z,-0.10
2023-01-23T15:57:48.967Z,-0.10
2023-01-23T16:00:24.737Z,0.00
2023-01-23T16:02:56.873Z,0.00
2023-01-23T16:05:26.894Z,0.00
2023-01-23T16:07:55.503Z,-0.10
2023-01-23T16:10:25.899Z,0.00
2023-01-23T16:12:55.811Z,0.00
2023-01-23T16:15:28.693Z,-0.10
2023-01-23T16:17:57.433Z,-0.10
2023-01-23T16:20:33.645Z,-0.10
2023-01-23T16:23:15.115Z,-0.20
2023-01-23T16:25:46.885Z,-0.10
2023-01-23T16:28:15.800Z,-0.10
2023-01-23T16:30:43.243Z,-0.20
2023-01-23T16:33:11.529Z,-0.10
2023-01-23T16:35:46.988Z,-0.10
2023-01-23T16:38:35.536Z,-0.10
2023-01-23T16:41:33.907Z,-0.10
2023-01-23T16:44:29.623Z,-0.10
2023-01-23T16:46:56.808Z,-0.20
2023-01-23T16:49:51.314Z,-0.10
2023-01-23T16:52:34.213Z,-0.10
2023-01-23T16:55:21.819Z,-0.10
2023-01-23T16:58:03.926Z,-0.10
2023-01-23T17:00:45.171Z,-0.10
2023-01-23T17:03:22.911Z,-0.10
2023-01-23T17:05:53.541Z,-0.20
2023-01-23T17:08:31.456Z,-0.10
2023-01-23T17:11:06.353Z,0.00
2023-01-23T17:13:45.920Z,-0.10
2023-01-23T17:16:26.562Z,-0.10
2023-01-23T17:19:01.129Z,-0.10
2023-01-23T17:21:35.099Z,-0.10
2023-01-23T17:24:04.842Z,-0.10
2023-01-23T17:26:31.955Z,0.00
2023-01-23T17:28:59.316Z,0.00
2023-01-23T17:31:32.765Z,0.00
2023-01-23T17:34:03.659Z,0.00
2023-01-23T17:36:31.827Z,0.00
2023-01-23T17:38:59.595Z,0.00
2023-01-23T17:41:41.586Z,-0.20
2023-01-23T17:44:08.729Z,-0.20
2023-01-23T17:46:39.484Z,-0.10
2023-01-23T17:49:28.662Z,-0.20
2023-01-23T17:51:56.913Z,-0.20
2023-01-23T17:54:23.647Z,-0.20
2023-01-23T17:56:53.726Z,0.00
2023-01-23T17:59:24.634Z,-0.10
2023-01-23T18:01:54.415Z,-0.10
2023-01-23T18:04:22.558Z,-0.10
2023-01-23T18:06:55.773Z,-0.10
2023-01-23T18:09:36.261Z,-0.20
2023-01-23T18:12:05.180Z,-0.20
2023-01-23T18:14:52.068Z,-0.20
2023-01-23T18:17:34.479Z,-0.10
2023-01-23T18:20:06.098Z,-0.20
2023-01-23T18:22:38.416Z,-0.20
2023-01-23T18:25:05.842Z,-0.20
2023-01-23T18:27:38.852Z,-0.10
2023-01-23T18:30:21.373Z,0.00
2023-01-23T18:33:27.553Z,-0.10
2023-01-23T18:36:06.646Z,-0.10
2023-01-23T18:38:54.945Z,-0.20
2023-01-23T18:41:25.987Z,-0.20
2023-01-23T18:44:17.723Z,-0.10
2023-01-23T18:46:44.753Z,-0.20
2023-01-23T18:49:24.543Z,-0.10
2023-01-23T18:52:18.128Z,-0.10
2023-01-23T18:55:11.394Z,-0.10
2023-01-23T18:57:52.256Z,-0.10
2023-01-23T19:00:30.864Z,-0.10
2023-01-23T19:03:10.180Z,0.00
2023-01-23T19:05:37.061Z,-0.10
2023-01-23T19:08:03.994Z,-0.20
2023-01-23T19:10:47.513Z,-0.10
2023-01-23T19:13:30.034Z,0.00
2023-01-23T19:16:11.951Z,-0.10
2023-01-23T19:18:49.327Z,-0.10
2023-01-23T19:21:20.154Z,-0.10
2023-01-23T19:23:56.958Z,-0.20
2023-01-23T19:26:29.916Z,-0.10
2023-01-23T19:28:59.695Z,0.00
2023-01-23T19:31:39.591Z,0.00
2023-01-23T19:34:07.858Z,-0.10
2023-01-23T19:36:48.206Z,-0.10
2023-01-23T19:39:16.208Z,-0.10
2023-01-23T19:41:48.876Z,-0.10
2023-01-23T19:44:33.221Z,-0.10
2023-01-23T19:47:11.841Z,0.00
2023-01-23T19:49:38.584Z,0.00
2023-01-23T19:52:05.680Z,0.00
2023-01-23T19:54:32.695Z,0.00
2023-01-23T19:56:59.785Z,-0.10
2023-01-23T19:59:27.237Z,-0.10
2023-01-23T20:01:54.072Z,-0.10
2023-01-23T20:04:22.888Z,0.10
2023-01-23T20:06:51.750Z,0.00
2023-01-23T20:09:19.045Z,0.00
2023-01-23T20:11:46.374Z,-0.10
2023-01-23T20:14:13.434Z,-0.20
2023-01-23T20:16:42.827Z,-0.20
2023-01-23T20:19:14.153Z,-0.20
2023-01-23T20:21:40.858Z,-0.20
2023-01-23T20:24:08.420Z,-0.20
2023-01-23T20:26:35.753Z,-0.20
2023-01-23T20:29:03.856Z,-0.20
2023-01-23T20:31:31.205Z,-0.20
2023-01-23T20:33:58.194Z,-0.20
2023-01-23T20:36:24.928Z,-0.10
2023-01-23T20:38:51.597Z,0.00
2023-01-23T20:41:19.856Z,0.00
2023-01-23T20:43:46.998Z,-0.20
2023-01-23T20:46:15.171Z,-0.30
2023-01-23T20:48:46.975Z,-0.30
2023-01-23T20:51:16.391Z,-0.10
2023-01-23T20:53:43.646Z,-0.20
2023-01-23T20:56:15.843Z,-0.10
2023-01-23T20:59:06.649Z,-0.30
2023-01-23T21:01:54.552Z,-0.20
2023-01-23T21:04:22.751Z,-0.20
2023-01-23T21:06:49.534Z,-0.20
2023-01-23T21:09:16.720Z,-0.10
2023-01-23T21:11:43.689Z,-0.10
2023-01-23T21:14:10.697Z,-0.10
2023-01-23T21:16:37.950Z,-0.20
2023-01-23T21:19:05.106Z,0.00
2023-01-23T21:21:32.176Z,-0.10
2023-01-23T21:23:58.997Z,-0.20
2023-01-23T21:26:27.747Z,-0.10
2023-01-23T21:28:56.228Z,-0.10
2023-01-23T21:31:25.854Z,-0.10
2023-01-23T21:33:53.029Z,-0.10
2023-01-23T21:36:21.945Z,0.00
2023-01-23T21:38:51.278Z,-0.10
2023-01-23T21:41:18.305Z,-0.20
2023-01-23T21:43:45.113Z,-0.10
2023-01-23T21:46:11.916Z,-0.10
2023-01-23T21:48:38.944Z,0.00
2023-01-23T21:51:16.980Z,0.00
2023-01-23T21:53:45.766Z,0.10
2023-01-23T21:56:14.178Z,0.00
2023-01-23T21:58:42.352Z,0.00
2023-01-23T22:01:33.885Z,0.00
2023-01-23T22:04:06.803Z,0.00
2023-01-23T22:06:34.647Z,-0.10
2023-01-23T22:09:01.771Z,0.00
2023-01-23T22:11:28.794Z,0.10
2023-01-23T22:13:55.661Z,0.00
2023-01-23T22:16:31.855Z,0.00
2023-01-23T22:19:02.718Z,0.00
2023-01-23T22:21:29.427Z,-0.20
2023-01-23T22:23:56.188Z,0.00
2023-01-23T22:26:23.843Z,0.00
2023-01-23T22:28:50.974Z,0.10
2023-01-23T22:31:18.165Z,0.00
2023-01-23T22:33:48.201Z,0.00
2023-01-23T22:36:17.465Z,0.10
2023-01-23T22:38:44.770Z,0.00
2023-01-23T22:41:14.705Z,0.00
2023-01-23T22:43:41.523Z,0.10
2023-01-23T22:46:17.391Z,0.00
2023-01-23T22:48:44.058Z,-0.10
2023-01-23T22:51:19.692Z,-0.10
2023-01-23T22:53:46.436Z,0.00
2023-01-23T22:56:13.723Z,-0.10
2023-01-23T22:58:44.015Z,-0.10
2023-01-23T23:01:12.007Z,0.00
2023-01-23T23:03:38.880Z,0.10
2023-01-23T23:06:08.128Z,0.00
2023-01-23T23:08:35.452Z,0.10
2023-01-23T23:11:08.624Z,0.00
2023-01-23T23:13:37.422Z,0.00
2023-01-23T23:16:10.989Z,-0.10
2023-01-23T23:18:39.297Z,0.10
2023-01-23T23:21:09.577Z,0.00
2023-01-23T23:23:36.922Z,0.00
2023-01-23T23:26:05.026Z,0.00
2023-01-23T23:28:32.270Z,0.00
2023-01-23T23:30:59.048Z,0.10
2023-01-23T23:33:26.064Z,0.00
2023-01-23T23:35:53.073Z,0.00
2023-01-23T23:38:20.323Z,0.00
2023-01-23T23:41:08.420Z,0.10
2023-01-23T23:43:35.398Z,0.10
2023-01-23T23:46:04.706Z,0.10
2023-01-23T23:48:32.941Z,0.20
2023-01-23T23:51:00.740Z,0.10
2023-01-23T23:53:28.059Z,0.00
2023-01-23T23:55:54.771Z,0.00
2023-01-23T23:58:23.756Z,0.00
